Time;durP1;ratioP1;P1;durP2;ratioP2;P2;SDS_P1;SDS_P2;PMS_P1;PMS_P2;Temp;Humidity;BMP_temperature;BMP_pressure;BME280_temperature;BME280_humidity;BME280_pressure;Samples;Min_cycle;Max_cycle;Signal;HPM_P1;HPM_P2
2021/10/20 00:01:47;;;;;;;9.83;6.85;;;;;;;22.94;56.39;101993.19;1749703;81;21516;-59
2021/10/20 00:04:13;;;;;;;11.80;7.78;;;;;;;22.93;56.40;101996.52;1736779;80;20932;-59
2021/10/20 00:06:39;;;;;;;9.30;6.95;;;;;;;22.91;56.39;101991.03;1727735;80;21472;-58
2021/10/20 00:09:05;;;;;;;9.40;6.97;;;;;;;22.90;56.40;101997.13;1732859;79;21111;-59
2021/10/20 00:11:32;;;;;;;12.35;7.70;;;;;;;22.88;56.39;101992.44;1730857;80;21086;-60
2021/10/20 00:13:58;;;;;;;10.72;8.83;;;;;;;22.89;56.39;101996.05;1738940;80;22264;-59
2021/10/20 00:16:24;;;;;;;11.70;8.00;;;;;;;22.87;56.41;101988.05;1739870;80;21060;-59
2021/10/20 00:18:51;;;;;;;10.80;7.78;;;;;;;22.86;56.42;101980.84;1728235;81;21059;-59
2021/10/20 00:21:23;;;;;;;11.28;7.03;;;;;;;22.85;56.42;101979.74;1710666;82;21098;-59
2021/10/20 00:23:48;;;;;;;10.05;7.47;;;;;;;22.84;56.46;101979.48;1725388;81;21027;-59
2021/10/20 00:26:14;;;;;;;14.25;8.25;;;;;;;22.82;56.44;101979.80;1717019;81;21280;-59
2021/10/20 00:28:40;;;;;;;10.15;7.75;;;;;;;22.82;56.45;101978.97;1717042;81;20914;-59
2021/10/20 00:31:06;;;;;;;11.20;6.90;;;;;;;22.79;56.47;101973.45;1704408;82;21174;-59
2021/10/20 00:33:32;;;;;;;12.25;7.47;;;;;;;22.80;56.47;101965.95;1705228;81;21688;-59
2021/10/20 00:35:58;;;;;;;11.60;7.72;;;;;;;22.81;56.51;101963.45;1731231;80;21122;-59
2021/10/20 00:38:24;;;;;;;9.38;7.22;;;;;;;22.83;56.59;101958.43;1735141;80;21155;-60
2021/10/20 00:40:51;;;;;;;12.15;7.58;;;;;;;22.85;56.68;101953.38;1736145;80;20907;-60
2021/10/20 00:43:19;;;;;;;9.35;6.92;;;;;;;22.85;56.78;101944.50;1735143;80;21559;-59
2021/10/20 00:45:45;;;;;;;10.38;7.47;;;;;;;22.86;56.80;101945.33;1714227;81;21087;-60
2021/10/20 00:48:11;;;;;;;13.60;8.48;;;;;;;22.87;56.77;101942.81;1724157;81;20917;-60
2021/10/20 00:50:38;;;;;;;10.95;7.53;;;;;;;22.88;56.73;101943.05;1705530;81;20979;-60
2021/10/20 00:53:04;;;;;;;12.93;8.15;;;;;;;22.89;56.67;101948.86;1724918;81;21019;-59
2021/10/20 00:55:30;;;;;;;9.68;7.47;;;;;;;22.88;56.61;101945.27;1715377;81;21012;-59
2021/10/20 00:57:56;;;;;;;11.75;7.33;;;;;;;22.89;56.56;101942.75;1720604;81;21205;-59
2021/10/20 01:00:22;;;;;;;11.33;8.05;;;;;;;22.89;56.52;101941.92;1716892;81;21512;-59
2021/10/20 01:02:48;;;;;;;10.13;7.70;;;;;;;22.88;56.47;101937.50;1709700;82;21903;-59
2021/10/20 01:05:15;;;;;;;13.15;8.30;;;;;;;22.87;56.45;101931.72;1720754;81;21028;-59
2021/10/20 01:07:41;;;;;;;10.20;7.60;;;;;;;22.86;56.42;101929.50;1716274;81;21106;-59
2021/10/20 01:10:09;;;;;;;10.23;7.70;;;;;;;22.85;56.39;101924.25;1720938;82;21545;-60
2021/10/20 01:12:35;;;;;;;11.57;7.95;;;;;;;22.84;56.37;101925.37;1710635;81;21229;-59
2021/10/20 01:15:20;;;;;;;11.50;8.15;;;;;;;22.84;56.34;101940.62;1719654;82;22140;-60
2021/10/20 01:17:47;;;;;;;12.47;8.60;;;;;;;22.82;56.36;101938.74;1708605;81;21142;-60
2021/10/20 01:20:14;;;;;;;11.03;8.40;;;;;;;22.80;56.35;101934.87;1712791;81;21193;-59
2021/10/20 01:22:41;;;;;;;11.30;7.92;;;;;;;22.80;56.32;101932.66;1725151;81;21155;-59
2021/10/20 01:25:07;;;;;;;10.80;7.45;;;;;;;22.79;56.30;101926.88;1706190;81;21056;-59
2021/10/20 01:27:33;;;;;;;11.85;8.48;;;;;;;22.76;56.32;101919.41;1719351;81;21094;-60
2021/10/20 01:30:00;;;;;;;11.22;7.90;;;;;;;22.75;56.28;101930.23;1715032;82;20979;-60
2021/10/20 01:32:27;;;;;;;10.75;8.20;;;;;;;22.74;56.28;101921.65;1721141;81;21025;-59
2021/10/20 01:34:54;;;;;;;10.20;8.15;;;;;;;22.74;56.29;101925.02;1718352;81;21069;-59
2021/10/20 01:37:22;;;;;;;11.05;7.75;;;;;;;22.73;56.29;101921.97;1718054;82;21133;-59
2021/10/20 01:39:48;;;;;;;12.30;7.62;;;;;;;22.72;56.28;101920.31;1721932;81;22040;-59
2021/10/20 01:42:14;;;;;;;10.75;8.08;;;;;;;22.71;56.29;101925.60;1709488;80;21068;-59
2021/10/20 01:44:40;;;;;;;14.47;8.53;;;;;;;22.68;56.28;101924.24;1720716;81;21467;-59
2021/10/20 01:47:06;;;;;;;9.50;7.83;;;;;;;22.68;56.28;101929.79;1721066;81;20928;-59
2021/10/20 01:49:32;;;;;;;11.35;8.83;;;;;;;22.66;56.27;101923.70;1716208;81;21091;-59
2021/10/20 01:51:58;;;;;;;12.47;9.13;;;;;;;22.66;56.27;101920.14;1723841;81;21369;-59
2021/10/20 01:54:24;;;;;;;11.43;8.38;;;;;;;22.65;56.25;101930.41;1715467;82;21134;-59
2021/10/20 01:56:50;;;;;;;10.38;8.38;;;;;;;22.64;56.22;101925.16;1714784;81;20897;-59
2021/10/20 01:59:17;;;;;;;12.73;8.53;;;;;;;22.64;56.22;101926.54;1709370;81;21512;-59
2021/10/20 02:01:43;;;;;;;10.63;8.53;;;;;;;22.62;56.22;101924.06;1705208;81;21024;-59
2021/10/20 02:04:12;;;;;;;12.58;8.78;;;;;;;22.61;56.19;101931.32;1721851;81;21156;-60
2021/10/20 02:06:38;;;;;;;13.35;9.05;;;;;;;22.61;56.17;101927.16;1705247;81;21490;-60
2021/10/20 02:09:06;;;;;;;14.03;8.68;;;;;;;22.60;56.16;101927.72;1705474;81;21153;-59
2021/10/20 02:11:34;;;;;;;11.48;8.63;;;;;;;22.58;56.13;101925.80;1723182;81;21196;-60
2021/10/20 02:14:01;;;;;;;9.88;8.00;;;;;;;22.58;56.12;101925.80;1717513;81;21072;-60
2021/10/20 02:16:28;;;;;;;11.60;8.63;;;;;;;22.57;56.11;101922.79;1712435;81;21328;-60
2021/10/20 02:18:54;;;;;;;12.23;9.30;;;;;;;22.57;56.09;101922.79;1725410;81;21016;-60
2021/10/20 02:21:20;;;;;;;11.40;8.63;;;;;;;22.55;56.08;101911.16;1713605;81;20897;-60
2021/10/20 02:23:47;;;;;;;12.65;8.53;;;;;;;22.55;56.06;101918.66;1714260;82;21445;-58
2021/10/20 02:26:13;;;;;;;10.05;8.35;;;;;;;22.55;56.06;101914.49;1709137;81;21046;-57
2021/10/20 02:28:39;;;;;;;11.60;8.08;;;;;;;22.54;56.03;101915.05;1720786;81;21487;-58
2021/10/20 02:31:05;;;;;;;12.13;8.68;;;;;;;22.54;56.00;101918.39;1689681;82;20904;-57
2021/10/20 02:33:31;;;;;;;11.40;8.30;;;;;;;22.53;55.98;101912.02;1714219;82;21037;-58
2021/10/20 02:35:57;;;;;;;13.70;8.58;;;;;;;22.53;55.97;101911.22;1723695;81;21138;-58
2021/10/20 02:38:23;;;;;;;10.98;8.48;;;;;;;22.52;55.95;101911.77;1711752;81;21003;-57
2021/10/20 02:40:50;;;;;;;10.60;8.70;;;;;;;22.51;55.96;101914.28;1722290;81;22607;-58
2021/10/20 02:43:17;;;;;;;11.33;8.23;;;;;;;22.51;55.92;101907.34;1725704;81;21009;-58
2021/10/20 02:45:44;;;;;;;11.78;8.15;;;;;;;22.51;55.89;101907.91;1713956;81;21679;-57
2021/10/20 02:48:10;;;;;;;11.50;8.50;;;;;;;22.50;55.87;101906.26;1719058;81;21605;-58
2021/10/20 02:50:36;;;;;;;9.65;8.15;;;;;;;22.50;55.85;101909.03;1713359;81;21073;-58
2021/10/20 02:53:02;;;;;;;11.70;8.35;;;;;;;22.50;55.85;101909.03;1724367;81;21733;-55
2021/10/20 02:55:29;;;;;;;10.28;8.30;;;;;;;22.48;55.83;101905.75;1724556;81;21124;-57
2021/10/20 02:57:55;;;;;;;11.63;8.13;;;;;;;22.48;55.81;101913.52;1719624;81;21154;-57
2021/10/20 03:00:22;;;;;;;10.65;8.58;;;;;;;22.48;55.78;101916.84;1717103;81;21010;-58
2021/10/20 03:02:48;;;;;;;12.10;8.83;;;;;;;22.47;55.79;101920.17;1716698;81;21461;-57
2021/10/20 03:05:14;;;;;;;11.53;8.88;;;;;;;22.46;55.75;101917.14;1718319;81;21318;-58
2021/10/20 03:07:50;;;;;;;10.65;7.85;;;;;;;22.46;55.75;101917.14;1723788;81;21437;-57
2021/10/20 03:10:17;;;;;;;11.22;8.25;;;;;;;22.47;55.72;101917.97;1703600;81;21041;-58
2021/10/20 03:12:43;;;;;;;11.38;8.40;;;;;;;22.47;55.70;101913.25;1713383;81;21218;-58
2021/10/20 03:15:10;;;;;;;11.00;7.55;;;;;;;22.47;55.66;101907.70;1713567;81;21608;-58
2021/10/20 03:17:37;;;;;;;9.80;7.15;;;;;;;22.48;55.64;101911.30;1727353;81;21459;-58
2021/10/20 03:20:08;;;;;;;10.95;6.75;;;;;;;22.49;55.59;101921.27;1722671;81;21093;-57
2021/10/20 03:22:42;;;;;;;8.80;6.50;;;;;;;22.49;55.58;101913.75;1708492;81;21141;-57
2021/10/20 03:25:09;;;;;;;8.60;5.95;;;;;;;22.50;55.56;101909.86;1728897;81;21060;-58
2021/10/20 03:27:47;;;;;;;8.60;5.58;;;;;;;22.51;55.55;101911.51;1724924;81;21086;-58
2021/10/20 03:30:14;;;;;;;7.80;5.70;;;;;;;22.53;55.53;101906.47;1711939;81;21122;-58
2021/10/20 03:32:40;;;;;;;8.18;5.75;;;;;;;22.53;55.52;101903.69;1722905;81;21057;-58
2021/10/20 03:35:08;;;;;;;7.87;5.55;;;;;;;22.54;55.49;101905.34;1707625;81;21048;-58
2021/10/20 03:37:34;;;;;;;8.90;5.40;;;;;;;22.54;55.48;101906.73;1715319;81;21187;-58
2021/10/20 03:40:02;;;;;;;6.00;4.62;;;;;;;22.56;55.47;101905.05;1711596;81;21080;-58
2021/10/20 03:42:29;;;;;;;5.53;4.80;;;;;;;22.57;55.49;101906.15;1698756;81;21493;-58
2021/10/20 03:44:55;;;;;;;5.65;4.40;;;;;;;22.59;55.46;101908.59;1710161;81;21140;-58
2021/10/20 03:47:21;;;;;;;5.87;4.15;;;;;;;22.60;55.47;101908.86;1707048;81;21633;-58
2021/10/20 03:49:48;;;;;;;5.45;4.20;;;;;;;22.63;55.46;101911.02;1720592;81;21549;-58
2021/10/20 03:52:15;;;;;;;7.37;4.50;;;;;;;22.63;55.46;101910.45;1707131;82;21195;-58
2021/10/20 03:54:41;;;;;;;5.45;3.72;;;;;;;22.65;55.43;101913.77;1705760;81;21415;-57
2021/10/20 03:57:08;;;;;;;6.47;4.45;;;;;;;22.66;55.44;101914.00;1707609;81;21772;-58
2021/10/20 03:59:34;;;;;;;4.60;3.70;;;;;;;22.66;55.43;101908.45;1708936;81;21000;-57
2021/10/20 04:02:00;;;;;;;4.90;4.08;;;;;;;22.68;55.39;101915.92;1719237;81;20999;-58
2021/10/20 04:04:27;;;;;;;5.03;3.60;;;;;;;22.69;55.38;101910.67;1724141;81;21038;-58
2021/10/20 04:06:53;;;;;;;5.50;4.10;;;;;;;22.72;55.40;101911.44;1725477;81;22039;-58
2021/10/20 04:09:19;;;;;;;5.30;3.85;;;;;;;22.73;55.39;101902.55;1711704;81;21088;-58
2021/10/20 04:11:45;;;;;;;5.65;4.35;;;;;;;22.75;55.38;101909.98;1718222;81;21077;-58
2021/10/20 04:14:11;;;;;;;4.78;3.92;;;;;;;22.75;55.37;101912.77;1713716;81;21159;-58
2021/10/20 04:16:37;;;;;;;6.75;4.33;;;;;;;22.75;55.37;101910.81;1715691;81;21018;-57
2021/10/20 04:19:03;;;;;;;7.03;4.20;;;;;;;22.78;55.35;101915.51;1718319;81;22102;-58
2021/10/20 04:21:29;;;;;;;5.78;3.95;;;;;;;22.78;55.36;101912.73;1717554;81;21022;-58
2021/10/20 04:23:55;;;;;;;6.80;4.65;;;;;;;22.79;55.36;101914.39;1716972;81;21001;-61
2021/10/20 04:26:21;;;;;;;7.75;4.65;;;;;;;22.81;55.36;101914.89;1724879;81;21003;-58
2021/10/20 04:28:47;;;;;;;7.22;4.58;;;;;;;22.81;55.35;101918.49;1715558;82;20904;-56
2021/10/20 04:31:13;;;;;;;8.65;5.35;;;;;;;22.81;55.35;101916.28;1725659;81;21486;-58
2021/10/20 04:33:39;;;;;;;7.78;4.28;;;;;;;22.82;55.34;101919.31;1703411;81;21079;-59
2021/10/20 04:36:05;;;;;;;6.53;4.65;;;;;;;22.82;55.34;101914.59;1720444;81;20949;-58
2021/10/20 04:38:32;;;;;;;7.40;4.67;;;;;;;22.83;55.34;101916.22;1716592;81;20952;-59
2021/10/20 04:40:58;;;;;;;7.20;4.85;;;;;;;22.83;55.35;101913.44;1715214;81;21066;-59
2021/10/20 04:43:24;;;;;;;8.00;5.30;;;;;;;22.85;55.36;101922.86;1716724;81;21200;-59
2021/10/20 04:45:52;;;;;;;7.00;4.50;;;;;;;22.85;55.38;101922.86;1718222;81;21419;-58
2021/10/20 04:48:18;;;;;;;8.95;5.45;;;;;;;22.85;55.38;101918.70;1704658;81;21154;-59
2021/10/20 04:50:44;;;;;;;9.60;4.97;;;;;;;22.84;55.39;101917.87;1710007;81;21107;-58
2021/10/20 04:53:10;;;;;;;12.75;5.60;;;;;;;22.87;55.42;101918.67;1708237;81;21759;-59
2021/10/20 04:55:36;;;;;;;11.20;6.20;;;;;;;22.91;55.52;101914.15;1721648;81;21330;-54
2021/10/20 04:58:07;;;;;;;7.12;5.25;;;;;;;22.95;55.66;101918.52;1714740;81;20984;-58
2021/10/20 05:00:30;;;;;;;7.00;4.97;;;;;;;22.98;55.78;101913.17;1723145;81;21121;-58
2021/10/20 05:02:56;;;;;;;11.68;6.65;;;;;;;23.02;55.85;101914.76;1715849;82;21034;-59
2021/10/20 05:05:23;;;;;;;9.68;5.85;;;;;;;23.05;55.86;101923.85;1718741;81;20938;-59
2021/10/20 05:07:52;;;;;;;15.45;6.53;;;;;;;23.07;55.82;101922.99;1718373;81;21488;-59
2021/10/20 05:10:22;;;;;;;10.25;6.20;;;;;;;23.10;55.79;101918.20;1703333;81;21583;-58
2021/10/20 05:12:49;;;;;;;20.92;9.90;;;;;;;23.12;55.72;101921.52;1719242;81;21170;-59
2021/10/20 05:15:16;;;;;;;11.08;6.22;;;;;;;23.13;55.67;101919.80;1703781;81;21593;-58
2021/10/20 05:17:43;;;;;;;9.78;6.87;;;;;;;23.15;55.62;101926.44;1694935;82;22787;-58
2021/10/20 05:20:12;;;;;;;11.57;7.08;;;;;;;23.15;55.58;101923.66;1710454;80;21338;-60
2021/10/20 05:22:42;;;;;;;15.55;8.65;;;;;;;23.15;55.54;101927.27;1730475;81;21064;-58
2021/10/20 05:25:09;;;;;;;16.10;8.43;;;;;;;23.15;55.55;101925.05;1725393;81;21142;-57
2021/10/20 05:27:35;;;;;;;14.60;7.95;;;;;;;23.15;55.53;101929.22;1719421;81;20927;-58
2021/10/20 05:30:03;;;;;;;14.87;8.00;;;;;;;23.13;55.51;101935.06;1714038;81;21637;-57
2021/10/20 05:32:29;;;;;;;16.05;9.00;;;;;;;23.13;55.50;101937.02;1710714;81;21366;-58
2021/10/20 05:34:55;;;;;;;13.03;8.63;;;;;;;23.12;55.51;101938.16;1719416;81;21305;-58
2021/10/20 05:37:22;;;;;;;19.50;8.90;;;;;;;23.10;55.50;101938.47;1719783;81;21090;-57
2021/10/20 05:39:48;;;;;;;12.60;8.05;;;;;;;23.09;55.51;101938.76;1717754;82;21535;-57
2021/10/20 05:42:15;;;;;;;17.27;8.35;;;;;;;23.08;55.50;101942.13;1715022;81;21139;-58
2021/10/20 05:44:42;;;;;;;16.35;8.43;;;;;;;23.07;55.51;101938.26;1704862;81;22131;-57
2021/10/20 05:47:09;;;;;;;13.80;7.80;;;;;;;23.05;55.51;101946.05;1709994;81;21198;-58
2021/10/20 05:49:35;;;;;;;15.70;7.65;;;;;;;23.04;55.51;101946.62;1701733;81;21185;-58
2021/10/20 05:52:01;;;;;;;13.75;7.55;;;;;;;23.02;55.52;101947.51;1700038;81;20891;-57
2021/10/20 05:54:27;;;;;;;13.80;7.80;;;;;;;23.01;55.50;101945.02;1719781;81;20924;-58
2021/10/20 05:56:53;;;;;;;15.32;7.70;;;;;;;22.99;55.50;101948.13;1715180;82;22775;-57
2021/10/20 05:59:22;;;;;;;13.08;8.03;;;;;;;22.99;55.50;101947.30;1712987;81;21110;-58
2021/10/20 06:01:47;;;;;;;11.57;7.30;;;;;;;22.97;55.51;101953.14;1718551;81;21126;-58
2021/10/20 06:04:15;;;;;;;14.25;7.70;;;;;;;22.96;55.49;101953.44;1720244;81;21031;-57
2021/10/20 06:06:41;;;;;;;10.95;7.15;;;;;;;22.95;55.49;101953.20;1721479;81;22745;-58
2021/10/20 06:09:07;;;;;;;11.35;7.33;;;;;;;22.94;55.50;101959.88;1718374;81;21092;-57
2021/10/20 06:11:33;;;;;;;13.05;7.80;;;;;;;22.92;55.48;101962.95;1723728;81;20920;-58
2021/10/20 06:13:59;;;;;;;11.00;7.37;;;;;;;22.92;55.48;101971.83;1704331;81;21074;-58
2021/10/20 06:16:25;;;;;;;12.50;7.37;;;;;;;22.91;55.47;101967.44;1718934;81;21103;-58
2021/10/20 06:18:52;;;;;;;10.93;7.12;;;;;;;22.90;55.49;101968.56;1712730;82;21584;-57
2021/10/20 06:21:18;;;;;;;11.57;7.60;;;;;;;22.89;55.46;101969.13;1706629;81;21319;-58
2021/10/20 06:23:44;;;;;;;11.43;7.20;;;;;;;22.87;55.45;101968.62;1708140;81;21482;-58
2021/10/20 06:26:10;;;;;;;11.15;6.75;;;;;;;22.87;55.45;101967.23;1715454;81;21038;-57
2021/10/20 06:28:37;;;;;;;11.00;7.10;;;;;;;22.87;55.44;101970.56;1717819;81;21202;-57
2021/10/20 06:31:03;;;;;;;9.95;6.65;;;;;;;22.85;55.43;101965.31;1736304;80;21110;-58
2021/10/20 06:33:30;;;;;;;10.65;6.75;;;;;;;22.85;55.39;101972.24;1714266;82;21584;-57
2021/10/20 06:35:56;;;;;;;10.53;6.83;;;;;;;22.84;55.38;101968.38;1717857;81;21135;-58
2021/10/20 06:38:22;;;;;;;11.10;6.58;;;;;;;22.83;55.39;101967.55;1738433;80;20928;-58
2021/10/20 06:40:48;;;;;;;10.08;6.47;;;;;;;22.82;55.38;101965.10;1741478;80;21025;-58
2021/10/20 06:43:15;;;;;;;11.15;6.92;;;;;;;22.82;55.34;101970.09;1710914;82;21092;-58
2021/10/20 06:45:41;;;;;;;10.65;6.70;;;;;;;22.81;55.35;101971.21;1717043;82;21085;-56
2021/10/20 06:48:08;;;;;;;11.45;7.12;;;;;;;22.82;55.34;101973.42;1719820;81;21026;-58
2021/10/20 06:50:34;;;;;;;10.18;6.55;;;;;;;22.81;55.34;101973.98;1722126;81;20900;-57
2021/10/20 06:53:00;;;;;;;9.68;6.37;;;;;;;22.79;55.33;101970.67;1730655;81;21134;-58
2021/10/20 06:55:27;;;;;;;10.18;7.40;;;;;;;22.77;55.31;101967.40;1705808;81;21402;-57
2021/10/20 06:57:53;;;;;;;10.18;6.58;;;;;;;22.77;55.31;101968.78;1723130;81;21085;-58
2021/10/20 07:00:20;;;;;;;9.08;6.47;;;;;;;22.76;55.30;101973.51;1713719;81;21082;-57
2021/10/20 07:02:46;;;;;;;10.03;5.92;;;;;;;22.76;55.29;101975.45;1722198;81;21123;-57
2021/10/20 07:05:12;;;;;;;8.75;6.67;;;;;;;22.75;55.25;101971.85;1717759;81;21096;-57
2021/10/20 07:07:38;;;;;;;9.48;6.42;;;;;;;22.74;55.25;101967.42;1717076;81;20889;-57
2021/10/20 07:10:06;;;;;;;10.43;6.92;;;;;;;22.73;55.26;101965.80;1716101;80;22149;-57
2021/10/20 07:12:35;;;;;;;9.60;7.12;;;;;;;22.73;55.25;101971.35;1724686;81;21079;-57
2021/10/20 07:15:00;;;;;;;9.28;6.12;;;;;;;22.72;55.25;101962.77;1725106;81;21070;-57
2021/10/20 07:17:27;;;;;;;8.53;6.00;;;;;;;22.72;55.25;101963.32;1713078;81;20928;-57
2021/10/20 07:19:53;;;;;;;8.10;6.28;;;;;;;22.72;55.23;101966.09;1716827;81;21666;-57
2021/10/20 07:22:19;;;;;;;9.73;6.72;;;;;;;22.71;55.23;101965.83;1728646;81;21109;-57
2021/10/20 07:24:45;;;;;;;8.00;6.33;;;;;;;22.71;55.21;101969.43;1719156;81;20922;-57
2021/10/20 07:27:11;;;;;;;9.53;6.12;;;;;;;22.69;55.18;101965.33;1711752;81;21125;-57
2021/10/20 07:29:40;;;;;;;9.08;6.20;;;;;;;22.70;55.19;101967.77;1716950;81;21571;-56
2021/10/20 07:32:06;;;;;;;8.88;6.60;;;;;;;22.68;55.18;101962.25;1709815;81;22428;-57
2021/10/20 07:34:32;;;;;;;8.95;6.42;;;;;;;22.68;55.18;101962.25;1719277;81;21293;-58
2021/10/20 07:36:58;;;;;;;8.78;6.22;;;;;;;22.67;55.18;101965.59;1724423;81;21421;-58
2021/10/20 07:39:24;;;;;;;9.23;6.37;;;;;;;22.67;55.17;101965.59;1718198;81;21562;-58
2021/10/20 07:41:51;;;;;;;8.83;6.42;;;;;;;22.66;55.17;101965.91;1709310;81;21075;-56
2021/10/20 07:44:17;;;;;;;8.58;6.30;;;;;;;22.66;55.17;101967.30;1722899;81;21061;-57
2021/10/20 07:46:43;;;;;;;8.75;6.83;;;;;;;22.64;55.16;101959.27;1717082;81;21526;-57
2021/10/20 07:49:10;;;;;;;10.18;6.97;;;;;;;22.64;55.16;101952.89;1727433;80;20915;-58
2021/10/20 07:51:36;;;;;;;12.15;7.00;;;;;;;22.64;55.14;101952.89;1738633;80;21457;-57
2021/10/20 07:54:03;;;;;;;8.98;6.30;;;;;;;22.63;55.14;101956.23;1737654;81;21146;-57
2021/10/20 07:56:35;;;;;;;10.50;6.62;;;;;;;22.63;55.13;101954.84;1716143;81;21203;-57
2021/10/20 07:59:01;;;;;;;8.25;6.20;;;;;;;22.63;55.12;101960.39;1711550;81;22072;-57
2021/10/20 08:01:27;;;;;;;8.78;6.67;;;;;;;22.62;55.13;101955.95;1718724;81;21091;-57
2021/10/20 08:03:54;;;;;;;8.83;6.78;;;;;;;22.63;55.10;101959.56;1742076;80;20896;-57
2021/10/20 08:06:20;;;;;;;9.65;6.58;;;;;;;22.62;55.13;101951.80;1734075;81;21130;-56
2021/10/20 08:08:46;;;;;;;8.18;6.58;;;;;;;22.62;55.11;101960.67;1735163;80;21450;-57
2021/10/20 08:11:12;;;;;;;8.55;6.25;;;;;;;22.62;55.09;101956.52;1740138;80;21225;-57
2021/10/20 08:13:38;;;;;;;8.80;5.97;;;;;;;22.61;55.09;101958.50;1724860;80;21055;-57
2021/10/20 08:16:04;;;;;;;10.95;6.75;;;;;;;22.59;55.10;101956.58;1702661;82;21094;-58
2021/10/20 08:18:30;;;;;;;7.78;6.12;;;;;;;22.61;55.09;101956.28;1739130;80;21108;-57
2021/10/20 08:20:56;;;;;;;7.50;6.12;;;;;;;22.59;55.09;101955.75;1730179;80;20946;-57
2021/10/20 08:23:22;;;;;;;9.90;6.35;;;;;;;22.59;55.08;101956.58;1730382;80;21158;-58
2021/10/20 08:25:48;;;;;;;9.00;6.40;;;;;;;22.59;55.07;101959.91;1719936;81;21222;-57
2021/10/20 08:28:14;;;;;;;9.83;6.80;;;;;;;22.59;55.08;101958.52;1708978;81;21243;-57
2021/10/20 08:30:41;;;;;;;8.18;6.20;;;;;;;22.59;55.09;101951.59;1708497;81;21149;-57
2021/10/20 08:33:07;;;;;;;8.63;6.92;;;;;;;22.58;55.05;101950.77;1707068;81;21058;-57
2021/10/20 08:35:33;;;;;;;7.65;5.83;;;;;;;22.58;55.08;101949.38;1717676;81;21174;-57
2021/10/20 08:38:03;;;;;;;8.98;6.70;;;;;;;22.57;55.06;101951.91;1707550;82;21174;-57
2021/10/20 08:40:33;;;;;;;9.13;5.92;;;;;;;22.57;55.04;101954.69;1708445;82;21148;-57
2021/10/20 08:42:59;;;;;;;7.47;6.50;;;;;;;22.57;55.04;101950.52;1712382;81;21610;-57
2021/10/20 08:45:25;;;;;;;8.90;6.53;;;;;;;22.57;55.03;101951.08;1723901;81;21082;-57
2021/10/20 08:47:52;;;;;;;9.10;6.62;;;;;;;22.57;55.03;101952.47;1718604;80;21364;-57
2021/10/20 08:50:26;;;;;;;7.28;6.17;;;;;;;22.56;55.03;101945.27;1718454;81;21016;-58
2021/10/20 08:52:52;;;;;;;8.90;6.70;;;;;;;22.56;55.02;101948.87;1718193;81;21083;-57
2021/10/20 08:55:19;;;;;;;9.10;6.80;;;;;;;22.55;55.00;101947.22;1711523;81;21067;-58
2021/10/20 08:57:45;;;;;;;10.03;6.17;;;;;;;22.55;55.02;101943.62;1718260;81;21099;-57
2021/10/20 09:00:13;;;;;;;7.65;6.62;;;;;;;22.55;54.99;101941.67;1712364;81;21500;-57
2021/10/20 09:02:43;;;;;;;8.40;6.55;;;;;;;22.55;55.02;101942.23;1728001;81;21124;-57
2021/10/20 09:05:11;;;;;;;8.40;6.25;;;;;;;22.54;55.00;101942.78;1704498;81;21473;-58
2021/10/20 09:07:44;;;;;;;6.83;5.83;;;;;;;22.54;54.99;101941.40;1711930;82;21024;-57
2021/10/20 09:10:10;;;;;;;8.48;6.67;;;;;;;22.53;55.00;101934.20;1718433;81;21142;-56
2021/10/20 09:12:42;;;;;;;7.85;6.15;;;;;;;22.53;54.98;101935.59;1717859;81;21990;-58
2021/10/20 09:15:19;;;;;;;7.70;6.28;;;;;;;22.54;54.97;101937.24;1725205;81;21723;-58
2021/10/20 09:17:52;;;;;;;7.67;5.85;;;;;;;22.53;54.94;101932.81;1715547;81;21150;-57
2021/10/20 09:20:42;;;;;;;8.20;6.05;;;;;;;22.52;54.94;101932.58;1713443;82;22066;-58
2021/10/20 09:23:21;;;;;;;7.57;5.70;;;;;;;22.53;54.96;101930.62;1712323;81;21165;-58
2021/10/20 09:25:56;;;;;;;7.80;5.87;;;;;;;22.52;54.94;101922.05;1714416;81;21272;-58
2021/10/20 09:28:24;;;;;;;7.53;6.17;;;;;;;22.52;54.94;101924.81;1713659;81;21077;-57
2021/10/20 09:30:50;;;;;;;7.87;6.12;;;;;;;22.52;54.92;101922.88;1698209;81;21100;-58
2021/10/20 09:33:17;;;;;;;8.53;6.03;;;;;;;22.50;54.93;101922.34;1700443;81;21067;-58
2021/10/20 09:35:43;;;;;;;8.18;5.87;;;;;;;22.51;54.92;101921.78;1683188;82;21326;-57
2021/10/20 09:38:10;;;;;;;8.00;6.42;;;;;;;22.51;54.93;101923.16;1712669;82;21352;-58
2021/10/20 09:40:43;;;;;;;8.78;5.92;;;;;;;22.50;54.90;101913.19;1708145;81;21111;-58
2021/10/20 09:43:13;;;;;;;8.10;5.80;;;;;;;22.50;54.93;101908.47;1716910;81;21083;-58
2021/10/20 09:45:42;;;;;;;8.80;6.10;;;;;;;22.50;54.92;101911.24;1723120;81;21080;-58
2021/10/20 09:48:20;;;;;;;7.70;5.58;;;;;;;22.49;54.91;101905.43;1723226;81;21066;-58
2021/10/20 09:50:58;;;;;;;8.23;6.08;;;;;;;22.49;54.90;101909.59;1718734;81;21997;-59
2021/10/20 09:53:27;;;;;;;6.83;5.42;;;;;;;22.50;54.89;101903.48;1719169;81;21563;-58
2021/10/20 09:55:53;;;;;;;6.85;6.15;;;;;;;22.50;54.89;101903.48;1727266;81;21098;-58
2021/10/20 09:58:19;;;;;;;7.97;5.75;;;;;;;22.49;54.89;101898.50;1713408;81;21147;-58
2021/10/20 10:00:45;;;;;;;7.08;5.80;;;;;;;22.49;54.88;101892.95;1728867;81;21545;-58
2021/10/20 10:03:11;;;;;;;8.08;6.15;;;;;;;22.49;54.88;101894.34;1718257;81;21330;-59
2021/10/20 10:05:38;;;;;;;8.63;6.08;;;;;;;22.48;54.87;101894.10;1710800;81;21059;-58
2021/10/20 10:08:04;;;;;;;7.83;5.67;;;;;;;22.49;54.87;101889.38;1723072;81;21101;-59
2021/10/20 10:10:31;;;;;;;8.70;6.28;;;;;;;22.49;54.87;101890.17;1720233;81;21012;-59
2021/10/20 10:13:02;;;;;;;7.97;5.85;;;;;;;22.49;54.84;101874.92;1726420;81;21461;-58
2021/10/20 10:15:28;;;;;;;8.48;6.12;;;;;;;22.49;54.84;101886.02;1706076;82;21340;-58
2021/10/20 10:17:55;;;;;;;6.58;4.97;;;;;;;22.49;54.83;101884.63;1718511;81;21053;-58
2021/10/20 10:20:28;;;;;;;7.00;5.45;;;;;;;22.49;54.83;101881.06;1716986;81;21514;-58
2021/10/20 10:22:56;;;;;;;6.83;5.72;;;;;;;22.49;54.83;101884.63;1706516;82;21104;-58
2021/10/20 10:25:39;;;;;;;6.78;5.65;;;;;;;22.49;54.83;101879.08;1717972;81;21082;-58
2021/10/20 10:28:25;;;;;;;8.00;5.22;;;;;;;22.49;54.82;101881.86;1707168;81;21851;-58
2021/10/20 10:31:07;;;;;;;7.20;5.42;;;;;;;22.49;54.81;101878.29;1711683;82;20992;-58
2021/10/20 10:33:38;;;;;;;6.87;5.50;;;;;;;22.49;54.80;101871.36;1707597;81;21087;-59
2021/10/20 10:36:23;;;;;;;6.70;5.30;;;;;;;22.48;54.78;101870.53;1704102;81;20993;-58
2021/10/20 10:39:03;;;;;;;5.70;4.97;;;;;;;22.47;54.79;101864.72;1710781;82;21039;-58
2021/10/20 10:41:32;;;;;;;6.80;5.60;;;;;;;22.49;54.77;101864.42;1711377;81;21288;-57
2021/10/20 10:44:18;;;;;;;7.62;5.35;;;;;;;22.47;54.77;101850.85;1715864;81;21200;-58
2021/10/20 10:47:10;;;;;;;6.80;5.17;;;;;;;22.47;54.76;101843.92;1724725;81;32488;-58
2021/10/20 10:49:39;;;;;;;8.33;5.50;;;;;;;22.47;54.76;101841.70;1717748;81;21036;-57
2021/10/20 10:52:23;;;;;;;6.33;5.10;;;;;;;22.47;54.76;101836.16;1718973;82;21167;-57
2021/10/20 10:54:57;;;;;;;7.08;5.35;;;;;;;22.46;54.76;101836.72;1723891;81;22067;-58
2021/10/20 10:57:24;;;;;;;7.03;5.67;;;;;;;22.47;54.76;101837.55;1710149;81;21056;-58
2021/10/20 11:00:15;;;;;;;7.55;5.60;;;;;;;22.47;54.76;101836.16;1658090;83;21170;-58
2021/10/20 11:02:49;;;;;;;6.85;5.05;;;;;;;22.47;54.75;101833.38;1719558;82;21519;-59
2021/10/20 11:05:20;;;;;;;6.90;4.72;;;;;;;22.46;54.75;101825.63;1720063;81;21030;-58
2021/10/20 11:07:48;;;;;;;;;;;;;;;22.46;54.75;101820.08;1710345;81;21131;-58
2021/10/20 11:10:16;;;;;;;6.37;5.25;;;;;;;22.46;54.75;101818.69;1715088;81;20234;-57
2021/10/20 11:12:50;;;;;;;6.60;5.10;;;;;;;22.46;54.76;101813.70;1728102;81;21137;-58
2021/10/20 11:15:18;;;;;;;6.05;4.90;;;;;;;22.45;54.75;101805.95;1717832;81;21739;-58
2021/10/20 11:17:45;;;;;;;7.47;4.78;;;;;;;22.46;54.73;101799.84;1717585;81;21062;-58
2021/10/20 11:20:15;;;;;;;6.60;5.30;;;;;;;22.46;54.74;101799.28;1722547;81;21491;-59
2021/10/20 11:22:45;;;;;;;5.40;4.53;;;;;;;22.47;54.71;101803.70;1724432;81;21126;-58
2021/10/20 11:25:12;;;;;;;7.20;4.90;;;;;;;22.47;54.74;101795.95;1707805;81;21091;-58